sensor_id;sensor_type;location;lat;lon;timestamp;P1;durP1;ratioP1;P2;durP2;ratioP2
21665;SDS011;10994;45.486;9.190;2022-09-16T00:01:18;9.80;;;2.92;;
21665;SDS011;10994;45.486;9.190;2022-09-16T00:03:45;10.40;;;3.38;;
21665;SDS011;10994;45.486;9.190;2022-09-16T00:06:32;7.55;;;3.05;;
21665;SDS011;10994;45.486;9.190;2022-09-16T00:08:58;6.05;;;2.72;;
21665;SDS011;10994;45.486;9.190;2022-09-16T00:11:27;5.90;;;3.00;;
21665;SDS011;10994;45.486;9.190;2022-09-16T00:13:58;8.68;;;3.53;;
21665;SDS011;10994;45.486;9.190;2022-09-16T00:16:24;11.65;;;3.30;;
21665;SDS011;10994;45.486;9.190;2022-09-16T00:18:54;5.78;;;2.83;;
21665;SDS011;10994;45.486;9.190;2022-09-16T00:21:22;7.82;;;3.08;;
21665;SDS011;10994;45.486;9.190;2022-09-16T00:23:48;6.07;;;3.00;;
21665;SDS011;10994;45.486;9.190;2022-09-16T00:26:14;8.90;;;3.22;;
21665;SDS011;10994;45.486;9.190;2022-09-16T00:28:40;4.95;;;3.08;;
21665;SDS011;10994;45.486;9.190;2022-09-16T00:31:06;9.85;;;4.15;;
21665;SDS011;10994;45.486;9.190;2022-09-16T00:33:32;8.30;;;3.58;;
21665;SDS011;10994;45.486;9.190;2022-09-16T00:36:05;8.50;;;3.92;;
21665;SDS011;10994;45.486;9.190;2022-09-16T00:38:32;8.02;;;3.45;;
21665;SDS011;10994;45.486;9.190;2022-09-16T00:40:58;9.68;;;3.72;;
21665;SDS011;10994;45.486;9.190;2022-09-16T00:43:24;5.97;;;2.80;;
21665;SDS011;10994;45.486;9.190;2022-09-16T00:45:57;9.18;;;3.65;;
21665;SDS011;10994;45.486;9.190;2022-09-16T00:48:26;8.20;;;3.10;;
21665;SDS011;10994;45.486;9.190;2022-09-16T00:50:57;6.07;;;3.05;;
21665;SDS011;10994;45.486;9.190;2022-09-16T00:53:28;7.78;;;2.88;;
21665;SDS011;10994;45.486;9.190;2022-09-16T00:55:58;6.00;;;2.80;;
21665;SDS011;10994;45.486;9.190;2022-09-16T01:01:03;7.38;;;3.17;;
21665;SDS011;10994;45.486;9.190;2022-09-16T01:03:30;6.32;;;2.60;;
21665;SDS011;10994;45.486;9.190;2022-09-16T01:05:59;5.03;;;2.63;;
21665;SDS011;10994;45.486;9.190;2022-09-16T01:08:25;5.45;;;2.78;;
21665;SDS011;10994;45.486;9.190;2022-09-16T01:10:50;8.32;;;3.15;;
21665;SDS011;10994;45.486;9.190;2022-09-16T01:13:16;5.90;;;2.90;;
21665;SDS011;10994;45.486;9.190;2022-09-16T01:18:25;4.82;;;3.00;;
21665;SDS011;10994;45.486;9.190;2022-09-16T01:26:20;9.50;;;3.35;;
21665;SDS011;10994;45.486;9.190;2022-09-16T01:32:11;5.60;;;2.72;;
21665;SDS011;10994;45.486;9.190;2022-09-16T01:37:25;6.53;;;2.85;;
21665;SDS011;10994;45.486;9.190;2022-09-16T01:47:19;6.75;;;3.03;;
21665;SDS011;10994;45.486;9.190;2022-09-16T01:55:49;8.48;;;3.42;;
21665;SDS011;10994;45.486;9.190;2022-09-16T02:00:59;6.55;;;2.80;;
21665;SDS011;10994;45.486;9.190;2022-09-16T02:03:32;8.98;;;3.03;;
21665;SDS011;10994;45.486;9.190;2022-09-16T02:06:01;8.13;;;2.83;;
21665;SDS011;10994;45.486;9.190;2022-09-16T02:08:33;5.55;;;3.13;;
21665;SDS011;10994;45.486;9.190;2022-09-16T02:11:17;9.75;;;3.83;;
21665;SDS011;10994;45.486;9.190;2022-09-16T02:13:45;6.10;;;3.15;;
21665;SDS011;10994;45.486;9.190;2022-09-16T02:16:40;7.43;;;3.55;;
21665;SDS011;10994;45.486;9.190;2022-09-16T02:19:18;9.75;;;3.42;;
21665;SDS011;10994;45.486;9.190;2022-09-16T02:21:48;9.70;;;4.13;;
21665;SDS011;10994;45.486;9.190;2022-09-16T02:24:16;6.43;;;3.13;;
21665;SDS011;10994;45.486;9.190;2022-09-16T02:26:49;7.18;;;3.92;;
21665;SDS011;10994;45.486;9.190;2022-09-16T02:29:19;6.93;;;3.42;;
21665;SDS011;10994;45.486;9.190;2022-09-16T02:31:48;8.10;;;3.75;;
21665;SDS011;10994;45.486;9.190;2022-09-16T02:34:21;5.70;;;3.10;;
21665;SDS011;10994;45.486;9.190;2022-09-16T02:36:56;8.65;;;3.38;;
21665;SDS011;10994;45.486;9.190;2022-09-16T02:39:27;7.38;;;3.83;;
21665;SDS011;10994;45.486;9.190;2022-09-16T02:41:55;11.93;;;4.20;;
21665;SDS011;10994;45.486;9.190;2022-09-16T02:44:22;10.98;;;3.78;;
21665;SDS011;10994;45.486;9.190;2022-09-16T02:47:09;11.43;;;3.97;;
21665;SDS011;10994;45.486;9.190;2022-09-16T02:49:56;8.07;;;3.83;;
21665;SDS011;10994;45.486;9.190;2022-09-16T02:52:56;7.85;;;3.67;;
21665;SDS011;10994;45.486;9.190;2022-09-16T02:55:33;11.55;;;4.28;;
21665;SDS011;10994;45.486;9.190;2022-09-16T02:58:05;7.07;;;3.92;;
21665;SDS011;10994;45.486;9.190;2022-09-16T03:00:32;7.72;;;4.28;;
21665;SDS011;10994;45.486;9.190;2022-09-16T03:03:01;8.02;;;4.07;;
21665;SDS011;10994;45.486;9.190;2022-09-16T03:05:29;6.07;;;3.67;;
21665;SDS011;10994;45.486;9.190;2022-09-16T03:07:55;9.18;;;3.38;;
21665;SDS011;10994;45.486;9.190;2022-09-16T03:10:26;8.32;;;4.43;;
21665;SDS011;10994;45.486;9.190;2022-09-16T03:13:08;8.30;;;3.65;;
21665;SDS011;10994;45.486;9.190;2022-09-16T03:21:12;5.88;;;3.50;;
21665;SDS011;10994;45.486;9.190;2022-09-16T03:23:56;7.55;;;3.53;;
21665;SDS011;10994;45.486;9.190;2022-09-16T03:26:54;7.38;;;3.40;;
21665;SDS011;10994;45.486;9.190;2022-09-16T03:29:52;9.15;;;3.70;;
21665;SDS011;10994;45.486;9.190;2022-09-16T03:32:26;5.00;;;3.47;;
21665;SDS011;10994;45.486;9.190;2022-09-16T03:35:03;5.38;;;2.75;;
21665;SDS011;10994;45.486;9.190;2022-09-16T03:37:31;7.38;;;3.83;;
21665;SDS011;10994;45.486;9.190;2022-09-16T03:40:02;7.55;;;3.55;;
21665;SDS011;10994;45.486;9.190;2022-09-16T03:42:31;8.43;;;3.15;;
21665;SDS011;10994;45.486;9.190;2022-09-16T03:44:57;7.72;;;3.22;;
21665;SDS011;10994;45.486;9.190;2022-09-16T03:47:23;7.75;;;2.90;;
21665;SDS011;10994;45.486;9.190;2022-09-16T03:49:49;6.18;;;3.33;;
21665;SDS011;10994;45.486;9.190;2022-09-16T03:52:15;4.22;;;2.83;;
21665;SDS011;10994;45.486;9.190;2022-09-16T03:54:43;5.60;;;3.22;;
21665;SDS011;10994;45.486;9.190;2022-09-16T03:57:08;6.72;;;3.33;;
21665;SDS011;10994;45.486;9.190;2022-09-16T03:59:34;4.18;;;3.08;;
21665;SDS011;10994;45.486;9.190;2022-09-16T04:02:00;6.38;;;3.20;;
21665;SDS011;10994;45.486;9.190;2022-09-16T04:04:25;3.50;;;2.95;;
21665;SDS011;10994;45.486;9.190;2022-09-16T04:06:51;3.70;;;2.55;;
21665;SDS011;10994;45.486;9.190;2022-09-16T04:09:17;3.75;;;3.08;;
21665;SDS011;10994;45.486;9.190;2022-09-16T04:11:42;3.30;;;2.58;;
21665;SDS011;10994;45.486;9.190;2022-09-16T04:14:08;3.95;;;2.53;;
21665;SDS011;10994;45.486;9.190;2022-09-16T04:16:35;3.30;;;2.05;;
21665;SDS011;10994;45.486;9.190;2022-09-16T04:19:01;6.63;;;2.95;;
21665;SDS011;10994;45.486;9.190;2022-09-16T04:21:27;7.53;;;2.72;;
21665;SDS011;10994;45.486;9.190;2022-09-16T04:23:53;4.50;;;2.60;;
21665;SDS011;10994;45.486;9.190;2022-09-16T04:26:19;5.10;;;2.70;;
21665;SDS011;10994;45.486;9.190;2022-09-16T04:28:45;7.25;;;2.85;;
21665;SDS011;10994;45.486;9.190;2022-09-16T04:31:12;5.25;;;2.53;;
21665;SDS011;10994;45.486;9.190;2022-09-16T04:33:39;5.15;;;2.90;;
21665;SDS011;10994;45.486;9.190;2022-09-16T04:38:34;4.18;;;3.00;;
21665;SDS011;10994;45.486;9.190;2022-09-16T04:41:01;7.25;;;2.88;;
21665;SDS011;10994;45.486;9.190;2022-09-16T04:43:29;6.88;;;4.05;;
21665;SDS011;10994;45.486;9.190;2022-09-16T04:45:54;5.47;;;3.22;;
21665;SDS011;10994;45.486;9.190;2022-09-16T04:48:20;7.00;;;4.20;;
21665;SDS011;10994;45.486;9.190;2022-09-16T04:50:46;4.05;;;3.50;;
21665;SDS011;10994;45.486;9.190;2022-09-16T04:53:11;6.15;;;3.53;;
21665;SDS011;10994;45.486;9.190;2022-09-16T04:55:37;10.10;;;4.05;;
21665;SDS011;10994;45.486;9.190;2022-09-16T04:58:03;5.65;;;4.10;;
21665;SDS011;10994;45.486;9.190;2022-09-16T05:00:28;5.35;;;4.20;;
21665;SDS011;10994;45.486;9.190;2022-09-16T05:02:54;5.93;;;4.13;;
21665;SDS011;10994;45.486;9.190;2022-09-16T05:05:20;6.38;;;4.35;;
21665;SDS011;10994;45.486;9.190;2022-09-16T05:07:46;5.57;;;4.20;;
21665;SDS011;10994;45.486;9.190;2022-09-16T05:10:11;6.60;;;4.05;;
21665;SDS011;10994;45.486;9.190;2022-09-16T05:12:37;6.32;;;4.15;;
21665;SDS011;10994;45.486;9.190;2022-09-16T05:15:03;8.10;;;4.72;;
21665;SDS011;10994;45.486;9.190;2022-09-16T05:17:29;8.30;;;4.68;;
21665;SDS011;10994;45.486;9.190;2022-09-16T05:19:55;5.82;;;5.15;;
21665;SDS011;10994;45.486;9.190;2022-09-16T05:22:22;7.10;;;5.32;;
21665;SDS011;10994;45.486;9.190;2022-09-16T05:24:48;8.75;;;5.50;;
21665;SDS011;10994;45.486;9.190;2022-09-16T05:27:13;10.43;;;5.95;;
21665;SDS011;10994;45.486;9.190;2022-09-16T05:29:39;16.88;;;6.00;;
21665;SDS011;10994;45.486;9.190;2022-09-16T05:32:05;21.55;;;7.55;;
21665;SDS011;10994;45.486;9.190;2022-09-16T05:34:32;14.38;;;6.43;;
21665;SDS011;10994;45.486;9.190;2022-09-16T05:37:00;9.32;;;6.45;;
21665;SDS011;10994;45.486;9.190;2022-09-16T05:39:26;10.23;;;7.35;;
21665;SDS011;10994;45.486;9.190;2022-09-16T05:41:54;9.88;;;7.97;;
21665;SDS011;10994;45.486;9.190;2022-09-16T05:44:21;12.38;;;8.18;;
21665;SDS011;10994;45.486;9.190;2022-09-16T05:46:47;11.93;;;8.07;;
21665;SDS011;10994;45.486;9.190;2022-09-16T05:49:13;12.65;;;8.88;;
21665;SDS011;10994;45.486;9.190;2022-09-16T05:51:44;12.50;;;8.52;;
21665;SDS011;10994;45.486;9.190;2022-09-16T05:54:10;16.00;;;9.35;;
21665;SDS011;10994;45.486;9.190;2022-09-16T05:56:36;10.27;;;7.90;;
21665;SDS011;10994;45.486;9.190;2022-09-16T05:59:02;11.13;;;8.80;;
21665;SDS011;10994;45.486;9.190;2022-09-16T06:01:29;15.38;;;8.70;;
21665;SDS011;10994;45.486;9.190;2022-09-16T06:03:58;12.60;;;8.82;;
21665;SDS011;10994;45.486;9.190;2022-09-16T06:06:27;10.88;;;7.95;;
21665;SDS011;10994;45.486;9.190;2022-09-16T06:08:58;10.77;;;8.63;;
21665;SDS011;10994;45.486;9.190;2022-09-16T06:11:27;19.25;;;8.75;;
21665;SDS011;10994;45.486;9.190;2022-09-16T06:13:57;13.25;;;9.05;;
21665;SDS011;10994;45.486;9.190;2022-09-16T06:16:26;15.00;;;10.00;;
21665;SDS011;10994;45.486;9.190;2022-09-16T06:18:53;14.60;;;9.20;;
21665;SDS011;10994;45.486;9.190;2022-09-16T06:21:19;10.32;;;7.28;;
21665;SDS011;10994;45.486;9.190;2022-09-16T06:23:46;15.13;;;8.02;;
21665;SDS011;10994;45.486;9.190;2022-09-16T06:26:13;11.98;;;7.35;;
21665;SDS011;10994;45.486;9.190;2022-09-16T06:28:40;11.95;;;8.60;;
21665;SDS011;10994;45.486;9.190;2022-09-16T06:31:09;12.13;;;7.95;;
21665;SDS011;10994;45.486;9.190;2022-09-16T06:33:37;11.32;;;8.25;;
21665;SDS011;10994;45.486;9.190;2022-09-16T06:36:07;10.98;;;7.43;;
21665;SDS011;10994;45.486;9.190;2022-09-16T06:38:34;13.07;;;8.88;;
21665;SDS011;10994;45.486;9.190;2022-09-16T06:41:01;11.63;;;7.97;;
21665;SDS011;10994;45.486;9.190;2022-09-16T06:43:28;14.98;;;9.00;;
21665;SDS011;10994;45.486;9.190;2022-09-16T06:45:55;12.75;;;8.02;;
21665;SDS011;10994;45.486;9.190;2022-09-16T06:48:26;12.27;;;7.78;;
21665;SDS011;10994;45.486;9.190;2022-09-16T06:50:56;10.30;;;7.57;;
21665;SDS011;10994;45.486;9.190;2022-09-16T06:53:29;10.35;;;8.35;;
21665;SDS011;10994;45.486;9.190;2022-09-16T06:55:59;12.93;;;8.20;;
21665;SDS011;10994;45.486;9.190;2022-09-16T06:58:26;12.82;;;7.35;;
21665;SDS011;10994;45.486;9.190;2022-09-16T07:00:54;12.57;;;7.47;;
21665;SDS011;10994;45.486;9.190;2022-09-16T07:03:20;10.52;;;7.65;;
21665;SDS011;10994;45.486;9.190;2022-09-16T07:05:59;11.32;;;7.00;;
21665;SDS011;10994;45.486;9.190;2022-09-16T07:08:28;11.38;;;7.60;;
21665;SDS011;10994;45.486;9.190;2022-09-16T07:10:59;9.63;;;7.32;;
21665;SDS011;10994;45.486;9.190;2022-09-16T07:13:27;13.30;;;8.35;;
21665;SDS011;10994;45.486;9.190;2022-09-16T07:15:53;14.13;;;7.95;;
21665;SDS011;10994;45.486;9.190;2022-09-16T07:18:22;12.32;;;9.32;;
21665;SDS011;10994;45.486;9.190;2022-09-16T07:20:48;16.00;;;8.63;;
21665;SDS011;10994;45.486;9.190;2022-09-16T07:23:13;14.60;;;8.30;;
21665;SDS011;10994;45.486;9.190;2022-09-16T07:25:39;14.68;;;8.18;;
21665;SDS011;10994;45.486;9.190;2022-09-16T07:28:05;9.82;;;7.40;;
21665;SDS011;10994;45.486;9.190;2022-09-16T07:30:30;11.73;;;6.80;;
21665;SDS011;10994;45.486;9.190;2022-09-16T07:32:58;9.18;;;7.20;;
21665;SDS011;10994;45.486;9.190;2022-09-16T07:35:28;11.20;;;7.25;;
21665;SDS011;10994;45.486;9.190;2022-09-16T07:37:54;10.30;;;7.53;;
21665;SDS011;10994;45.486;9.190;2022-09-16T07:40:20;11.38;;;7.72;;
21665;SDS011;10994;45.486;9.190;2022-09-16T07:42:46;8.43;;;6.55;;
21665;SDS011;10994;45.486;9.190;2022-09-16T07:45:11;8.20;;;6.85;;
21665;SDS011;10994;45.486;9.190;2022-09-16T07:47:37;13.73;;;7.65;;
21665;SDS011;10994;45.486;9.190;2022-09-16T07:50:03;13.10;;;7.00;;
21665;SDS011;10994;45.486;9.190;2022-09-16T07:52:29;10.60;;;6.75;;
21665;SDS011;10994;45.486;9.190;2022-09-16T07:54:54;23.20;;;17.13;;
21665;SDS011;10994;45.486;9.190;2022-09-16T07:57:20;11.32;;;8.82;;
21665;SDS011;10994;45.486;9.190;2022-09-16T07:59:47;15.00;;;8.13;;
21665;SDS011;10994;45.486;9.190;2022-09-16T08:02:13;15.43;;;9.18;;
21665;SDS011;10994;45.486;9.190;2022-09-16T08:04:39;12.80;;;10.07;;
21665;SDS011;10994;45.486;9.190;2022-09-16T08:07:05;11.75;;;8.43;;
21665;SDS011;10994;45.486;9.190;2022-09-16T08:09:31;11.77;;;8.23;;
21665;SDS011;10994;45.486;9.190;2022-09-16T08:11:57;15.65;;;7.65;;
21665;SDS011;10994;45.486;9.190;2022-09-16T08:14:23;12.05;;;7.40;;
21665;SDS011;10994;45.486;9.190;2022-09-16T08:16:49;10.02;;;5.70;;
21665;SDS011;10994;45.486;9.190;2022-09-16T08:19:15;12.45;;;5.20;;
21665;SDS011;10994;45.486;9.190;2022-09-16T08:21:41;11.55;;;5.60;;
21665;SDS011;10994;45.486;9.190;2022-09-16T08:24:07;10.75;;;5.78;;
21665;SDS011;10994;45.486;9.190;2022-09-16T08:26:34;13.05;;;6.07;;
21665;SDS011;10994;45.486;9.190;2022-09-16T08:29:00;9.32;;;5.30;;
21665;SDS011;10994;45.486;9.190;2022-09-16T08:31:26;13.05;;;6.30;;
21665;SDS011;10994;45.486;9.190;2022-09-16T08:33:51;10.40;;;6.40;;
21665;SDS011;10994;45.486;9.190;2022-09-16T08:36:18;11.57;;;7.00;;
21665;SDS011;10994;45.486;9.190;2022-09-16T08:38:46;15.70;;;8.25;;
21665;SDS011;10994;45.486;9.190;2022-09-16T08:41:17;12.02;;;9.02;;
21665;SDS011;10994;45.486;9.190;2022-09-16T08:43:54;13.27;;;8.70;;
21665;SDS011;10994;45.486;9.190;2022-09-16T08:46:38;15.15;;;8.75;;
21665;SDS011;10994;45.486;9.190;2022-09-16T08:52:04;16.40;;;12.05;;
21665;SDS011;10994;45.486;9.190;2022-09-16T08:57:57;20.65;;;9.18;;
21665;SDS011;10994;45.486;9.190;2022-09-16T09:00:36;14.20;;;9.02;;
21665;SDS011;10994;45.486;9.190;2022-09-16T09:05:54;19.60;;;9.52;;
21665;SDS011;10994;45.486;9.190;2022-09-16T09:10:54;17.15;;;12.15;;
21665;SDS011;10994;45.486;9.190;2022-09-16T09:16:36;15.60;;;11.82;;
21665;SDS011;10994;45.486;9.190;2022-09-16T09:19:22;14.32;;;11.85;;
21665;SDS011;10994;45.486;9.190;2022-09-16T09:27:34;17.75;;;13.27;;
21665;SDS011;10994;45.486;9.190;2022-09-16T09:30:26;19.60;;;12.95;;
21665;SDS011;10994;45.486;9.190;2022-09-16T09:38:19;17.00;;;13.32;;
21665;SDS011;10994;45.486;9.190;2022-09-16T09:41:16;14.93;;;13.18;;
21665;SDS011;10994;45.486;9.190;2022-09-16T09:43:54;19.95;;;13.77;;
21665;SDS011;10994;45.486;9.190;2022-09-16T09:54:45;16.65;;;13.13;;
21665;SDS011;10994;45.486;9.190;2022-09-16T10:00:20;18.85;;;13.25;;
21665;SDS011;10994;45.486;9.190;2022-09-16T10:02:46;16.48;;;11.73;;
21665;SDS011;10994;45.486;9.190;2022-09-16T10:05:22;23.58;;;12.80;;
21665;SDS011;10994;45.486;9.190;2022-09-16T10:07:54;15.48;;;12.75;;
21665;SDS011;10994;45.486;9.190;2022-09-16T10:10:23;16.38;;;12.05;;
21665;SDS011;10994;45.486;9.190;2022-09-16T10:12:50;20.30;;;13.82;;
21665;SDS011;10994;45.486;9.190;2022-09-16T10:17:50;17.20;;;14.05;;
21665;SDS011;10994;45.486;9.190;2022-09-16T10:20:33;21.13;;;15.10;;
21665;SDS011;10994;45.486;9.190;2022-09-16T10:23:03;16.08;;;11.80;;
21665;SDS011;10994;45.486;9.190;2022-09-16T10:25:37;14.60;;;11.48;;
21665;SDS011;10994;45.486;9.190;2022-09-16T10:28:05;11.73;;;10.52;;
21665;SDS011;10994;45.486;9.190;2022-09-16T10:30:50;17.02;;;12.63;;
21665;SDS011;10994;45.486;9.190;2022-09-16T10:33:22;13.07;;;9.75;;
21665;SDS011;10994;45.486;9.190;2022-09-16T10:35:52;16.02;;;10.13;;
21665;SDS011;10994;45.486;9.190;2022-09-16T10:38:22;14.57;;;9.43;;
21665;SDS011;10994;45.486;9.190;2022-09-16T10:40:51;14.88;;;10.82;;
21665;SDS011;10994;45.486;9.190;2022-09-16T10:43:25;18.33;;;12.20;;
21665;SDS011;10994;45.486;9.190;2022-09-16T10:45:53;11.10;;;8.32;;
21665;SDS011;10994;45.486;9.190;2022-09-16T10:48:21;16.05;;;9.90;;
21665;SDS011;10994;45.486;9.190;2022-09-16T10:53:25;12.57;;;9.98;;
21665;SDS011;10994;45.486;9.190;2022-09-16T10:55:55;13.13;;;10.10;;
21665;SDS011;10994;45.486;9.190;2022-09-16T10:58:22;13.25;;;9.00;;
21665;SDS011;10994;45.486;9.190;2022-09-16T11:14:30;11.20;;;8.05;;
21665;SDS011;10994;45.486;9.190;2022-09-16T11:17:33;13.52;;;8.27;;
21665;SDS011;10994;45.486;9.190;2022-09-16T11:20:18;12.38;;;7.85;;
21665;SDS011;10994;45.486;9.190;2022-09-16T11:25:51;11.55;;;7.32;;
21665;SDS011;10994;45.486;9.190;2022-09-16T11:36:59;10.20;;;5.75;;
21665;SDS011;10994;45.486;9.190;2022-09-16T11:50:02;9.73;;;6.20;;
21665;SDS011;10994;45.486;9.190;2022-09-16T12:00:44;11.70;;;6.82;;
21665;SDS011;10994;45.486;9.190;2022-09-16T12:06:10;7.13;;;6.10;;
21665;SDS011;10994;45.486;9.190;2022-09-16T12:11:38;6.28;;;4.82;;
21665;SDS011;10994;45.486;9.190;2022-09-16T12:16:42;6.72;;;4.88;;
21665;SDS011;10994;45.486;9.190;2022-09-16T12:19:19;5.97;;;4.40;;
21665;SDS011;10994;45.486;9.190;2022-09-16T12:21:48;6.40;;;4.10;;
21665;SDS011;10994;45.486;9.190;2022-09-16T12:24:22;7.70;;;4.10;;
21665;SDS011;10994;45.486;9.190;2022-09-16T12:30:04;5.40;;;3.75;;
21665;SDS011;10994;45.486;9.190;2022-09-16T12:35:42;6.70;;;4.00;;
21665;SDS011;10994;45.486;9.190;2022-09-16T12:38:19;8.45;;;4.00;;
21665;SDS011;10994;45.486;9.190;2022-09-16T12:44:03;9.02;;;3.85;;
21665;SDS011;10994;45.486;9.190;2022-09-16T12:49:35;3.38;;;2.20;;
21665;SDS011;10994;45.486;9.190;2022-09-16T12:52:24;7.32;;;2.67;;
21665;SDS011;10994;45.486;9.190;2022-09-16T12:58:35;7.47;;;2.70;;
21665;SDS011;10994;45.486;9.190;2022-09-16T13:03:47;5.05;;;2.30;;
21665;SDS011;10994;45.486;9.190;2022-09-16T13:06:24;5.25;;;2.67;;
21665;SDS011;10994;45.486;9.190;2022-09-16T13:08:56;3.17;;;2.47;;
21665;SDS011;10994;45.486;9.190;2022-09-16T13:11:39;4.80;;;2.35;;
21665;SDS011;10994;45.486;9.190;2022-09-16T13:14:13;7.47;;;3.53;;
21665;SDS011;10994;45.486;9.190;2022-09-16T13:16:53;7.47;;;2.55;;
21665;SDS011;10994;45.486;9.190;2022-09-16T13:22:15;7.07;;;3.40;;
21665;SDS011;10994;45.486;9.190;2022-09-16T13:24:49;5.15;;;2.80;;
21665;SDS011;10994;45.486;9.190;2022-09-16T13:27:29;9.52;;;3.72;;
21665;SDS011;10994;45.486;9.190;2022-09-16T13:32:44;4.55;;;2.92;;
21665;SDS011;10994;45.486;9.190;2022-09-16T13:37:57;9.80;;;3.20;;
21665;SDS011;10994;45.486;9.190;2022-09-16T13:40:29;4.88;;;3.05;;
21665;SDS011;10994;45.486;9.190;2022-09-16T13:45:36;3.75;;;3.00;;
21665;SDS011;10994;45.486;9.190;2022-09-16T13:48:08;5.20;;;2.30;;
21665;SDS011;10994;45.486;9.190;2022-09-16T13:50:46;5.63;;;3.22;;
21665;SDS011;10994;45.486;9.190;2022-09-16T13:53:27;8.43;;;3.70;;
21665;SDS011;10994;45.486;9.190;2022-09-16T13:56:00;5.30;;;2.40;;
21665;SDS011;10994;45.486;9.190;2022-09-16T13:59:07;3.03;;;2.40;;
21665;SDS011;10994;45.486;9.190;2022-09-16T14:04:49;2.95;;;2.38;;
21665;SDS011;10994;45.486;9.190;2022-09-16T14:07:39;3.85;;;2.47;;
21665;SDS011;10994;45.486;9.190;2022-09-16T14:13:13;3.03;;;2.22;;
21665;SDS011;10994;45.486;9.190;2022-09-16T14:15:57;7.47;;;2.83;;
21665;SDS011;10994;45.486;9.190;2022-09-16T14:18:30;4.32;;;2.75;;
21665;SDS011;10994;45.486;9.190;2022-09-16T14:21:05;8.07;;;2.80;;
21665;SDS011;10994;45.486;9.190;2022-09-16T14:23:41;3.45;;;2.28;;
21665;SDS011;10994;45.486;9.190;2022-09-16T14:26:20;3.42;;;1.95;;
21665;SDS011;10994;45.486;9.190;2022-09-16T14:28:48;4.57;;;2.40;;
21665;SDS011;10994;45.486;9.190;2022-09-16T14:31:18;5.80;;;2.03;;
21665;SDS011;10994;45.486;9.190;2022-09-16T14:33:57;2.80;;;1.90;;
21665;SDS011;10994;45.486;9.190;2022-09-16T14:36:32;3.33;;;2.25;;
21665;SDS011;10994;45.486;9.190;2022-09-16T14:39:03;4.00;;;1.90;;
21665;SDS011;10994;45.486;9.190;2022-09-16T14:44:24;4.07;;;2.22;;
21665;SDS011;10994;45.486;9.190;2022-09-16T14:46:56;3.33;;;2.03;;
21665;SDS011;10994;45.486;9.190;2022-09-16T14:49:25;7.32;;;2.47;;
21665;SDS011;10994;45.486;9.190;2022-09-16T14:51:54;2.72;;;2.30;;
21665;SDS011;10994;45.486;9.190;2022-09-16T14:54:22;5.13;;;3.17;;
21665;SDS011;10994;45.486;9.190;2022-09-16T14:56:53;2.28;;;1.98;;
21665;SDS011;10994;45.486;9.190;2022-09-16T14:59:25;4.45;;;2.00;;
21665;SDS011;10994;45.486;9.190;2022-09-16T15:01:54;2.78;;;1.85;;
21665;SDS011;10994;45.486;9.190;2022-09-16T15:04:26;6.38;;;2.10;;
21665;SDS011;10994;45.486;9.190;2022-09-16T15:06:58;2.38;;;1.83;;
21665;SDS011;10994;45.486;9.190;2022-09-16T15:09:36;5.93;;;2.15;;
21665;SDS011;10994;45.486;9.190;2022-09-16T15:12:22;3.28;;;1.90;;
21665;SDS011;10994;45.486;9.190;2022-09-16T15:14:52;2.47;;;2.22;;
21665;SDS011;10994;45.486;9.190;2022-09-16T15:17:19;1.83;;;1.63;;
21665;SDS011;10994;45.486;9.190;2022-09-16T15:19:49;3.00;;;2.45;;
21665;SDS011;10994;45.486;9.190;2022-09-16T15:22:18;3.80;;;1.90;;
21665;SDS011;10994;45.486;9.190;2022-09-16T15:24:45;2.97;;;1.85;;
21665;SDS011;10994;45.486;9.190;2022-09-16T15:27:21;2.17;;;1.63;;
21665;SDS011;10994;45.486;9.190;2022-09-16T15:29:51;5.20;;;2.25;;
21665;SDS011;10994;45.486;9.190;2022-09-16T15:32:21;3.30;;;2.30;;
21665;SDS011;10994;45.486;9.190;2022-09-16T15:37:50;6.45;;;4.90;;
21665;SDS011;10994;45.486;9.190;2022-09-16T15:42:48;3.28;;;2.83;;
21665;SDS011;10994;45.486;9.190;2022-09-16T15:45:33;4.30;;;2.00;;
21665;SDS011;10994;45.486;9.190;2022-09-16T15:48:01;4.70;;;2.10;;
21665;SDS011;10994;45.486;9.190;2022-09-16T15:50:51;2.00;;;1.42;;
21665;SDS011;10994;45.486;9.190;2022-09-16T15:53:42;4.95;;;3.58;;
21665;SDS011;10994;45.486;9.190;2022-09-16T15:58:54;3.72;;;2.30;;
21665;SDS011;10994;45.486;9.190;2022-09-16T16:04:30;3.95;;;1.98;;
21665;SDS011;10994;45.486;9.190;2022-09-16T16:07:00;3.05;;;2.10;;
21665;SDS011;10994;45.486;9.190;2022-09-16T16:11:58;2.75;;;2.55;;
21665;SDS011;10994;45.486;9.190;2022-09-16T16:14:30;3.35;;;2.20;;
21665;SDS011;10994;45.486;9.190;2022-09-16T16:17:07;4.65;;;2.33;;
21665;SDS011;10994;45.486;9.190;2022-09-16T16:19:39;3.78;;;2.30;;
21665;SDS011;10994;45.486;9.190;2022-09-16T16:22:06;2.42;;;1.95;;
21665;SDS011;10994;45.486;9.190;2022-09-16T16:24:32;6.93;;;3.70;;
21665;SDS011;10994;45.486;9.190;2022-09-16T16:26:58;3.65;;;2.20;;
21665;SDS011;10994;45.486;9.190;2022-09-16T16:29:24;3.05;;;2.00;;
21665;SDS011;10994;45.486;9.190;2022-09-16T16:34:45;3.55;;;2.17;;
21665;SDS011;10994;45.486;9.190;2022-09-16T16:37:14;6.80;;;2.58;;
21665;SDS011;10994;45.486;9.190;2022-09-16T16:39:41;5.95;;;2.20;;
21665;SDS011;10994;45.486;9.190;2022-09-16T16:42:08;4.70;;;3.03;;
21665;SDS011;10994;45.486;9.190;2022-09-16T16:44:37;3.28;;;2.88;;
21665;SDS011;10994;45.486;9.190;2022-09-16T16:47:03;4.53;;;2.30;;
21665;SDS011;10994;45.486;9.190;2022-09-16T16:49:30;4.18;;;1.85;;
21665;SDS011;10994;45.486;9.190;2022-09-16T16:51:55;4.57;;;2.30;;
21665;SDS011;10994;45.486;9.190;2022-09-16T16:54:24;5.50;;;2.58;;
21665;SDS011;10994;45.486;9.190;2022-09-16T16:56:51;5.50;;;2.45;;
21665;SDS011;10994;45.486;9.190;2022-09-16T16:59:18;4.78;;;2.38;;
21665;SDS011;10994;45.486;9.190;2022-09-16T17:01:45;3.33;;;2.40;;
21665;SDS011;10994;45.486;9.190;2022-09-16T17:04:11;4.25;;;2.00;;
21665;SDS011;10994;45.486;9.190;2022-09-16T17:06:37;4.25;;;2.80;;
21665;SDS011;10994;45.486;9.190;2022-09-16T17:09:04;3.40;;;2.67;;
21665;SDS011;10994;45.486;9.190;2022-09-16T17:11:32;3.58;;;2.55;;
21665;SDS011;10994;45.486;9.190;2022-09-16T17:13:58;4.45;;;2.30;;
21665;SDS011;10994;45.486;9.190;2022-09-16T17:16:26;5.18;;;2.60;;
21665;SDS011;10994;45.486;9.190;2022-09-16T17:18:53;5.45;;;2.85;;
21665;SDS011;10994;45.486;9.190;2022-09-16T17:21:24;5.45;;;2.75;;
21665;SDS011;10994;45.486;9.190;2022-09-16T17:23:53;5.22;;;2.42;;
21665;SDS011;10994;45.486;9.190;2022-09-16T17:26:20;6.05;;;2.55;;
21665;SDS011;10994;45.486;9.190;2022-09-16T17:28:46;7.13;;;2.70;;
21665;SDS011;10994;45.486;9.190;2022-09-16T17:31:14;3.90;;;2.50;;
21665;SDS011;10994;45.486;9.190;2022-09-16T17:33:42;6.32;;;2.90;;
21665;SDS011;10994;45.486;9.190;2022-09-16T17:36:08;5.53;;;2.83;;
21665;SDS011;10994;45.486;9.190;2022-09-16T17:38:36;5.25;;;2.70;;
21665;SDS011;10994;45.486;9.190;2022-09-16T17:41:06;5.93;;;2.65;;
21665;SDS011;10994;45.486;9.190;2022-09-16T17:43:33;7.30;;;3.67;;
21665;SDS011;10994;45.486;9.190;2022-09-16T17:45:59;6.55;;;2.83;;
21665;SDS011;10994;45.486;9.190;2022-09-16T17:48:27;4.18;;;2.80;;
21665;SDS011;10994;45.486;9.190;2022-09-16T17:50:54;4.88;;;2.40;;
21665;SDS011;10994;45.486;9.190;2022-09-16T17:53:20;3.50;;;2.78;;
21665;SDS011;10994;45.486;9.190;2022-09-16T17:55:46;4.97;;;2.72;;
21665;SDS011;10994;45.486;9.190;2022-09-16T17:58:12;5.15;;;2.92;;
21665;SDS011;10994;45.486;9.190;2022-09-16T18:00:39;3.92;;;2.78;;
21665;SDS011;10994;45.486;9.190;2022-09-16T18:03:06;5.45;;;4.38;;
21665;SDS011;10994;45.486;9.190;2022-09-16T18:05:33;4.47;;;2.83;;
21665;SDS011;10994;45.486;9.190;2022-09-16T18:08:00;3.85;;;2.72;;
21665;SDS011;10994;45.486;9.190;2022-09-16T18:10:25;2.95;;;2.30;;
21665;SDS011;10994;45.486;9.190;2022-09-16T18:12:51;5.22;;;3.30;;